sensor_id;sensor_type;location;lat;lon;timestamp;P1;durP1;ratioP1;P2;durP2;ratioP2
13793;SDS011;31160;49.500;7.772;2023-02-28T00:00:53;2.17;;;1.13;;
13793;SDS011;31160;49.500;7.772;2023-02-28T00:03:20;3.83;;;1.10;;
13793;SDS011;31160;49.500;7.772;2023-02-28T00:05:46;1.77;;;0.93;;
13793;SDS011;31160;49.500;7.772;2023-02-28T00:08:13;1.53;;;0.93;;
13793;SDS011;31160;49.500;7.772;2023-02-28T00:10:40;4.80;;;1.97;;
13793;SDS011;31160;49.500;7.772;2023-02-28T00:13:07;4.67;;;0.90;;
13793;SDS011;31160;49.500;7.772;2023-02-28T00:15:33;7.07;;;2.17;;
13793;SDS011;31160;49.500;7.772;2023-02-28T00:18:01;6.87;;;3.10;;
13793;SDS011;31160;49.500;7.772;2023-02-28T00:20:28;7.53;;;2.47;;
13793;SDS011;31160;49.500;7.772;2023-02-28T00:22:55;3.83;;;2.13;;
13793;SDS011;31160;49.500;7.772;2023-02-28T00:25:23;2.63;;;1.23;;
13793;SDS011;31160;49.500;7.772;2023-02-28T00:27:51;3.17;;;1.63;;
13793;SDS011;31160;49.500;7.772;2023-02-28T00:30:18;2.07;;;1.30;;
13793;SDS011;31160;49.500;7.772;2023-02-28T00:32:47;3.00;;;1.80;;
13793;SDS011;31160;49.500;7.772;2023-02-28T00:35:14;2.50;;;1.20;;
13793;SDS011;31160;49.500;7.772;2023-02-28T00:37:42;2.87;;;1.63;;
13793;SDS011;31160;49.500;7.772;2023-02-28T00:40:09;2.03;;;1.30;;
13793;SDS011;31160;49.500;7.772;2023-02-28T00:42:37;3.03;;;1.10;;
13793;SDS011;31160;49.500;7.772;2023-02-28T00:45:06;1.23;;;1.00;;
13793;SDS011;31160;49.500;7.772;2023-02-28T00:47:36;1.57;;;0.97;;
13793;SDS011;31160;49.500;7.772;2023-02-28T00:50:03;3.03;;;1.20;;
13793;SDS011;31160;49.500;7.772;2023-02-28T00:52:31;1.30;;;1.17;;
13793;SDS011;31160;49.500;7.772;2023-02-28T00:54:57;2.47;;;1.20;;
13793;SDS011;31160;49.500;7.772;2023-02-28T00:57:24;1.90;;;1.10;;
13793;SDS011;31160;49.500;7.772;2023-02-28T00:59:51;3.63;;;1.10;;
13793;SDS011;31160;49.500;7.772;2023-02-28T01:02:21;4.03;;;1.23;;
13793;SDS011;31160;49.500;7.772;2023-02-28T01:04:48;2.20;;;1.13;;
13793;SDS011;31160;49.500;7.772;2023-02-28T01:07:15;2.17;;;1.27;;
13793;SDS011;31160;49.500;7.772;2023-02-28T01:09:42;1.87;;;1.10;;
13793;SDS011;31160;49.500;7.772;2023-02-28T01:12:09;3.30;;;1.20;;
13793;SDS011;31160;49.500;7.772;2023-02-28T01:14:35;1.90;;;1.20;;
13793;SDS011;31160;49.500;7.772;2023-02-28T01:17:03;2.63;;;1.00;;
13793;SDS011;31160;49.500;7.772;2023-02-28T01:19:30;1.57;;;1.07;;
13793;SDS011;31160;49.500;7.772;2023-02-28T01:22:00;2.33;;;1.30;;
13793;SDS011;31160;49.500;7.772;2023-02-28T01:24:28;2.13;;;1.50;;
13793;SDS011;31160;49.500;7.772;2023-02-28T01:26:54;3.77;;;1.60;;
13793;SDS011;31160;49.500;7.772;2023-02-28T01:29:21;1.80;;;1.30;;
13793;SDS011;31160;49.500;7.772;2023-02-28T01:31:48;4.33;;;1.63;;
13793;SDS011;31160;49.500;7.772;2023-02-28T01:34:15;2.10;;;1.43;;
13793;SDS011;31160;49.500;7.772;2023-02-28T01:36:41;2.20;;;1.50;;
13793;SDS011;31160;49.500;7.772;2023-02-28T01:39:09;1.93;;;1.27;;
13793;SDS011;31160;49.500;7.772;2023-02-28T01:41:36;2.20;;;1.57;;
13793;SDS011;31160;49.500;7.772;2023-02-28T01:46:54;2.60;;;1.63;;
13793;SDS011;31160;49.500;7.772;2023-02-28T01:49:21;1.97;;;1.30;;
13793;SDS011;31160;49.500;7.772;2023-02-28T01:51:49;4.27;;;1.50;;
13793;SDS011;31160;49.500;7.772;2023-02-28T01:54:19;2.13;;;1.40;;
13793;SDS011;31160;49.500;7.772;2023-02-28T01:56:52;2.70;;;1.30;;
13793;SDS011;31160;49.500;7.772;2023-02-28T02:02:15;2.23;;;1.40;;
13793;SDS011;31160;49.500;7.772;2023-02-28T02:05:29;4.43;;;1.67;;
13793;SDS011;31160;49.500;7.772;2023-02-28T02:07:39;2.70;;;1.47;;
13793;SDS011;31160;49.500;7.772;2023-02-28T02:10:12;2.73;;;1.70;;
13793;SDS011;31160;49.500;7.772;2023-02-28T02:15:30;4.37;;;1.60;;
13793;SDS011;31160;49.500;7.772;2023-02-28T02:18:19;2.17;;;1.50;;
13793;SDS011;31160;49.500;7.772;2023-02-28T02:21:40;2.97;;;1.83;;
13793;SDS011;31160;49.500;7.772;2023-02-28T02:29:50;2.20;;;1.57;;
13793;SDS011;31160;49.500;7.772;2023-02-28T02:32:44;2.27;;;1.50;;
13793;SDS011;31160;49.500;7.772;2023-02-28T02:41:36;2.07;;;1.43;;
13793;SDS011;31160;49.500;7.772;2023-02-28T02:44:18;2.57;;;1.67;;
13793;SDS011;31160;49.500;7.772;2023-02-28T02:47:09;3.83;;;1.67;;
13793;SDS011;31160;49.500;7.772;2023-02-28T02:49:41;3.40;;;1.60;;
13793;SDS011;31160;49.500;7.772;2023-02-28T02:52:14;2.73;;;1.53;;
13793;SDS011;31160;49.500;7.772;2023-02-28T02:54:44;2.67;;;1.63;;
13793;SDS011;31160;49.500;7.772;2023-02-28T02:57:17;4.70;;;1.50;;
13793;SDS011;31160;49.500;7.772;2023-02-28T02:59:49;1.93;;;1.40;;
13793;SDS011;31160;49.500;7.772;2023-02-28T03:02:18;4.03;;;1.60;;
13793;SDS011;31160;49.500;7.772;2023-02-28T03:04:50;2.20;;;1.40;;
13793;SDS011;31160;49.500;7.772;2023-02-28T03:07:20;1.90;;;1.20;;
13793;SDS011;31160;49.500;7.772;2023-02-28T03:09:54;4.23;;;1.40;;
13793;SDS011;31160;49.500;7.772;2023-02-28T03:12:23;1.83;;;1.40;;
13793;SDS011;31160;49.500;7.772;2023-02-28T03:17:39;2.33;;;1.40;;
13793;SDS011;31160;49.500;7.772;2023-02-28T03:22:59;3.83;;;2.10;;
13793;SDS011;31160;49.500;7.772;2023-02-28T03:28:10;3.23;;;1.77;;
13793;SDS011;31160;49.500;7.772;2023-02-28T03:30:57;2.33;;;1.40;;
13793;SDS011;31160;49.500;7.772;2023-02-28T03:33:30;4.23;;;2.07;;
13793;SDS011;31160;49.500;7.772;2023-02-28T03:36:04;3.67;;;2.13;;
13793;SDS011;31160;49.500;7.772;2023-02-28T03:38:38;5.30;;;2.50;;
13793;SDS011;31160;49.500;7.772;2023-02-28T03:41:13;9.83;;;4.33;;
13793;SDS011;31160;49.500;7.772;2023-02-28T03:44:03;2.80;;;2.17;;
13793;SDS011;31160;49.500;7.772;2023-02-28T03:46:36;2.30;;;1.97;;
13793;SDS011;31160;49.500;7.772;2023-02-28T03:49:17;5.00;;;3.03;;
13793;SDS011;31160;49.500;7.772;2023-02-28T03:51:46;5.83;;;3.93;;
13793;SDS011;31160;49.500;7.772;2023-02-28T03:54:18;6.57;;;2.80;;
13793;SDS011;31160;49.500;7.772;2023-02-28T03:56:55;4.83;;;2.80;;
13793;SDS011;31160;49.500;7.772;2023-02-28T03:59:39;7.80;;;3.97;;
13793;SDS011;31160;49.500;7.772;2023-02-28T04:02:10;7.87;;;3.67;;
13793;SDS011;31160;49.500;7.772;2023-02-28T04:04:37;2.90;;;2.17;;
13793;SDS011;31160;49.500;7.772;2023-02-28T04:07:05;2.33;;;1.63;;
13793;SDS011;31160;49.500;7.772;2023-02-28T04:09:33;7.03;;;3.73;;
13793;SDS011;31160;49.500;7.772;2023-02-28T04:12:00;6.70;;;3.13;;
13793;SDS011;31160;49.500;7.772;2023-02-28T04:14:27;8.27;;;3.30;;
13793;SDS011;31160;49.500;7.772;2023-02-28T04:16:54;10.93;;;4.23;;
13793;SDS011;31160;49.500;7.772;2023-02-28T04:19:20;5.10;;;2.30;;
13793;SDS011;31160;49.500;7.772;2023-02-28T04:21:48;10.60;;;4.30;;
13793;SDS011;31160;49.500;7.772;2023-02-28T04:24:22;5.50;;;3.00;;
13793;SDS011;31160;49.500;7.772;2023-02-28T04:26:51;9.40;;;3.70;;
13793;SDS011;31160;49.500;7.772;2023-02-28T04:29:30;3.87;;;2.27;;
13793;SDS011;31160;49.500;7.772;2023-02-28T04:31:58;12.00;;;5.17;;
13793;SDS011;31160;49.500;7.772;2023-02-28T04:34:27;10.60;;;4.10;;
13793;SDS011;31160;49.500;7.772;2023-02-28T04:36:54;9.47;;;4.10;;
13793;SDS011;31160;49.500;7.772;2023-02-28T04:39:38;10.40;;;3.50;;
13793;SDS011;31160;49.500;7.772;2023-02-28T04:42:05;14.43;;;5.43;;
13793;SDS011;31160;49.500;7.772;2023-02-28T04:44:32;8.17;;;2.87;;
13793;SDS011;31160;49.500;7.772;2023-02-28T04:46:59;4.47;;;2.80;;
13793;SDS011;31160;49.500;7.772;2023-02-28T04:49:25;5.13;;;2.77;;
13793;SDS011;31160;49.500;7.772;2023-02-28T04:51:52;10.77;;;3.80;;
13793;SDS011;31160;49.500;7.772;2023-02-28T04:54:19;5.97;;;2.70;;
13793;SDS011;31160;49.500;7.772;2023-02-28T04:56:46;8.47;;;4.13;;
13793;SDS011;31160;49.500;7.772;2023-02-28T04:59:15;6.43;;;3.80;;
13793;SDS011;31160;49.500;7.772;2023-02-28T05:01:45;3.50;;;2.60;;
13793;SDS011;31160;49.500;7.772;2023-02-28T05:04:13;6.70;;;2.40;;
13793;SDS011;31160;49.500;7.772;2023-02-28T05:06:40;2.50;;;2.10;;
13793;SDS011;31160;49.500;7.772;2023-02-28T05:09:06;3.73;;;2.20;;
13793;SDS011;31160;49.500;7.772;2023-02-28T05:11:33;3.23;;;2.37;;
13793;SDS011;31160;49.500;7.772;2023-02-28T05:14:02;3.47;;;2.40;;
13793;SDS011;31160;49.500;7.772;2023-02-28T05:16:30;4.80;;;2.57;;
13793;SDS011;31160;49.500;7.772;2023-02-28T05:18:57;3.03;;;2.27;;
13793;SDS011;31160;49.500;7.772;2023-02-28T05:21:26;3.63;;;2.33;;
13793;SDS011;31160;49.500;7.772;2023-02-28T05:23:54;3.03;;;2.30;;
13793;SDS011;31160;49.500;7.772;2023-02-28T05:26:22;4.00;;;2.47;;
13793;SDS011;31160;49.500;7.772;2023-02-28T05:28:49;4.00;;;2.40;;
13793;SDS011;31160;49.500;7.772;2023-02-28T05:31:16;5.63;;;2.40;;
13793;SDS011;31160;49.500;7.772;2023-02-28T05:33:43;3.63;;;2.43;;
13793;SDS011;31160;49.500;7.772;2023-02-28T05:36:09;3.97;;;2.50;;
13793;SDS011;31160;49.500;7.772;2023-02-28T05:38:36;4.27;;;2.77;;
13793;SDS011;31160;49.500;7.772;2023-02-28T05:41:07;3.33;;;2.50;;
13793;SDS011;31160;49.500;7.772;2023-02-28T05:43:36;4.17;;;2.63;;
13793;SDS011;31160;49.500;7.772;2023-02-28T05:46:06;3.13;;;2.13;;
13793;SDS011;31160;49.500;7.772;2023-02-28T05:48:35;4.80;;;3.00;;
13793;SDS011;31160;49.500;7.772;2023-02-28T05:51:04;3.80;;;2.97;;
13793;SDS011;31160;49.500;7.772;2023-02-28T05:53:32;3.30;;;2.43;;
13793;SDS011;31160;49.500;7.772;2023-02-28T05:55:59;4.83;;;2.90;;
13793;SDS011;31160;49.500;7.772;2023-02-28T05:58:26;4.20;;;2.83;;
13793;SDS011;31160;49.500;7.772;2023-02-28T06:00:57;4.33;;;2.70;;
13793;SDS011;31160;49.500;7.772;2023-02-28T06:03:24;5.10;;;2.70;;
13793;SDS011;31160;49.500;7.772;2023-02-28T06:05:51;4.37;;;2.80;;
13793;SDS011;31160;49.500;7.772;2023-02-28T06:08:18;4.27;;;3.10;;
13793;SDS011;31160;49.500;7.772;2023-02-28T06:10:45;4.13;;;2.80;;
13793;SDS011;31160;49.500;7.772;2023-02-28T06:13:12;5.40;;;2.93;;
13793;SDS011;31160;49.500;7.772;2023-02-28T06:15:39;7.07;;;2.90;;
13793;SDS011;31160;49.500;7.772;2023-02-28T06:18:06;4.37;;;2.77;;
13793;SDS011;31160;49.500;7.772;2023-02-28T06:20:33;5.50;;;2.87;;
13793;SDS011;31160;49.500;7.772;2023-02-28T06:23:00;5.00;;;2.90;;
13793;SDS011;31160;49.500;7.772;2023-02-28T06:25:27;4.47;;;2.63;;
13793;SDS011;31160;49.500;7.772;2023-02-28T06:27:54;3.73;;;2.63;;
13793;SDS011;31160;49.500;7.772;2023-02-28T06:30:21;4.73;;;2.73;;
13793;SDS011;31160;49.500;7.772;2023-02-28T06:32:53;4.97;;;3.03;;
13793;SDS011;31160;49.500;7.772;2023-02-28T06:35:20;5.05;;;2.80;;
13793;SDS011;31160;49.500;7.772;2023-02-28T06:37:47;3.60;;;2.67;;
13793;SDS011;31160;49.500;7.772;2023-02-28T06:40:14;4.83;;;2.80;;
13793;SDS011;31160;49.500;7.772;2023-02-28T06:42:41;5.37;;;2.93;;
13793;SDS011;31160;49.500;7.772;2023-02-28T06:45:08;4.10;;;2.70;;
13793;SDS011;31160;49.500;7.772;2023-02-28T06:47:36;7.93;;;3.53;;
13793;SDS011;31160;49.500;7.772;2023-02-28T06:50:04;5.70;;;2.70;;
13793;SDS011;31160;49.500;7.772;2023-02-28T06:52:32;3.87;;;2.33;;
13793;SDS011;31160;49.500;7.772;2023-02-28T06:55:02;2.90;;;2.20;;
13793;SDS011;31160;49.500;7.772;2023-02-28T06:57:33;3.97;;;2.57;;
13793;SDS011;31160;49.500;7.772;2023-02-28T07:00:02;2.93;;;1.83;;
13793;SDS011;31160;49.500;7.772;2023-02-28T07:02:34;4.30;;;2.33;;
13793;SDS011;31160;49.500;7.772;2023-02-28T07:05:02;3.37;;;2.47;;
13793;SDS011;31160;49.500;7.772;2023-02-28T07:07:29;3.07;;;2.20;;
13793;SDS011;31160;49.500;7.772;2023-02-28T07:09:56;5.20;;;2.50;;
13793;SDS011;31160;49.500;7.772;2023-02-28T07:12:23;4.03;;;2.40;;
13793;SDS011;31160;49.500;7.772;2023-02-28T07:14:49;3.73;;;2.47;;
13793;SDS011;31160;49.500;7.772;2023-02-28T07:17:16;3.33;;;2.10;;
13793;SDS011;31160;49.500;7.772;2023-02-28T07:19:43;3.63;;;2.07;;
13793;SDS011;31160;49.500;7.772;2023-02-28T07:22:09;5.50;;;2.80;;
13793;SDS011;31160;49.500;7.772;2023-02-28T07:24:36;2.73;;;2.30;;
13793;SDS011;31160;49.500;7.772;2023-02-28T07:27:04;3.37;;;2.53;;
13793;SDS011;31160;49.500;7.772;2023-02-28T07:29:31;3.87;;;2.60;;
13793;SDS011;31160;49.500;7.772;2023-02-28T07:31:57;4.50;;;2.13;;
13793;SDS011;31160;49.500;7.772;2023-02-28T07:34:24;3.23;;;2.20;;
13793;SDS011;31160;49.500;7.772;2023-02-28T07:36:52;4.13;;;2.33;;
13793;SDS011;31160;49.500;7.772;2023-02-28T07:39:20;3.03;;;2.63;;
13793;SDS011;31160;49.500;7.772;2023-02-28T07:41:48;4.07;;;2.40;;
13793;SDS011;31160;49.500;7.772;2023-02-28T07:44:14;3.77;;;2.70;;
13793;SDS011;31160;49.500;7.772;2023-02-28T07:46:41;3.83;;;2.07;;
13793;SDS011;31160;49.500;7.772;2023-02-28T07:49:08;2.80;;;1.90;;
13793;SDS011;31160;49.500;7.772;2023-02-28T07:51:35;5.60;;;2.30;;
13793;SDS011;31160;49.500;7.772;2023-02-28T07:54:01;3.93;;;2.20;;
13793;SDS011;31160;49.500;7.772;2023-02-28T07:56:28;4.13;;;2.00;;
13793;SDS011;31160;49.500;7.772;2023-02-28T07:58:55;2.77;;;1.83;;
13793;SDS011;31160;49.500;7.772;2023-02-28T08:01:22;4.07;;;2.40;;
13793;SDS011;31160;49.500;7.772;2023-02-28T08:03:49;3.73;;;2.30;;
13793;SDS011;31160;49.500;7.772;2023-02-28T08:06:18;3.13;;;2.17;;
13793;SDS011;31160;49.500;7.772;2023-02-28T08:08:47;3.43;;;2.10;;
13793;SDS011;31160;49.500;7.772;2023-02-28T08:11:14;3.20;;;2.30;;
13793;SDS011;31160;49.500;7.772;2023-02-28T08:13:42;4.00;;;2.47;;
13793;SDS011;31160;49.500;7.772;2023-02-28T08:16:10;4.53;;;2.50;;
13793;SDS011;31160;49.500;7.772;2023-02-28T08:18:40;3.23;;;2.13;;
13793;SDS011;31160;49.500;7.772;2023-02-28T08:21:07;3.23;;;2.10;;
13793;SDS011;31160;49.500;7.772;2023-02-28T08:23:35;4.87;;;2.70;;
13793;SDS011;31160;49.500;7.772;2023-02-28T08:26:02;7.03;;;2.60;;
13793;SDS011;31160;49.500;7.772;2023-02-28T08:28:29;4.27;;;2.20;;
13793;SDS011;31160;49.500;7.772;2023-02-28T08:30:56;2.50;;;1.80;;
13793;SDS011;31160;49.500;7.772;2023-02-28T08:33:23;3.90;;;2.30;;
13793;SDS011;31160;49.500;7.772;2023-02-28T08:35:54;5.73;;;2.33;;
13793;SDS011;31160;49.500;7.772;2023-02-28T08:38:22;2.70;;;2.13;;
13793;SDS011;31160;49.500;7.772;2023-02-28T08:40:49;4.07;;;2.50;;
13793;SDS011;31160;49.500;7.772;2023-02-28T08:43:16;3.60;;;2.20;;
13793;SDS011;31160;49.500;7.772;2023-02-28T08:45:43;6.10;;;2.23;;
13793;SDS011;31160;49.500;7.772;2023-02-28T08:48:09;2.87;;;1.80;;
13793;SDS011;31160;49.500;7.772;2023-02-28T08:50:36;3.33;;;2.13;;
13793;SDS011;31160;49.500;7.772;2023-02-28T08:53:03;2.87;;;2.00;;
13793;SDS011;31160;49.500;7.772;2023-02-28T08:55:30;3.23;;;2.10;;
13793;SDS011;31160;49.500;7.772;2023-02-28T08:57:56;4.47;;;2.70;;
13793;SDS011;31160;49.500;7.772;2023-02-28T09:00:24;5.37;;;2.57;;
13793;SDS011;31160;49.500;7.772;2023-02-28T09:02:51;4.23;;;2.10;;
13793;SDS011;31160;49.500;7.772;2023-02-28T09:05:18;3.47;;;2.17;;
13793;SDS011;31160;49.500;7.772;2023-02-28T09:07:44;5.10;;;2.60;;
13793;SDS011;31160;49.500;7.772;2023-02-28T09:10:11;3.47;;;2.27;;
13793;SDS011;31160;49.500;7.772;2023-02-28T09:12:38;2.80;;;1.97;;
13793;SDS011;31160;49.500;7.772;2023-02-28T09:15:05;2.90;;;2.20;;
13793;SDS011;31160;49.500;7.772;2023-02-28T09:17:32;4.50;;;2.10;;
13793;SDS011;31160;49.500;7.772;2023-02-28T09:19:59;2.50;;;2.00;;
13793;SDS011;31160;49.500;7.772;2023-02-28T09:22:26;4.37;;;2.30;;
13793;SDS011;31160;49.500;7.772;2023-02-28T09:24:53;5.07;;;2.73;;
13793;SDS011;31160;49.500;7.772;2023-02-28T09:27:19;4.83;;;2.93;;
13793;SDS011;31160;49.500;7.772;2023-02-28T09:29:46;3.57;;;2.70;;
13793;SDS011;31160;49.500;7.772;2023-02-28T09:32:13;4.43;;;2.33;;
13793;SDS011;31160;49.500;7.772;2023-02-28T09:34:40;5.50;;;2.60;;
13793;SDS011;31160;49.500;7.772;2023-02-28T09:37:07;6.60;;;3.03;;
13793;SDS011;31160;49.500;7.772;2023-02-28T09:39:34;5.60;;;2.27;;
13793;SDS011;31160;49.500;7.772;2023-02-28T09:42:00;5.63;;;2.77;;
13793;SDS011;31160;49.500;7.772;2023-02-28T09:44:35;4.27;;;2.60;;
13793;SDS011;31160;49.500;7.772;2023-02-28T09:49:55;5.70;;;3.20;;
13793;SDS011;31160;49.500;7.772;2023-02-28T09:52:27;6.03;;;2.93;;
13793;SDS011;31160;49.500;7.772;2023-02-28T09:55:00;3.87;;;3.00;;
13793;SDS011;31160;49.500;7.772;2023-02-28T09:57:42;3.93;;;2.77;;
13793;SDS011;31160;49.500;7.772;2023-02-28T10:00:21;5.13;;;3.07;;
13793;SDS011;31160;49.500;7.772;2023-02-28T10:05:32;4.13;;;2.90;;
13793;SDS011;31160;49.500;7.772;2023-02-28T10:08:13;3.97;;;2.57;;
13793;SDS011;31160;49.500;7.772;2023-02-28T10:10:47;4.43;;;3.10;;
13793;SDS011;31160;49.500;7.772;2023-02-28T10:13:23;4.97;;;3.27;;
13793;SDS011;31160;49.500;7.772;2023-02-28T10:16:06;4.50;;;2.90;;
13793;SDS011;31160;49.500;7.772;2023-02-28T10:18:40;5.97;;;3.00;;
13793;SDS011;31160;49.500;7.772;2023-02-28T10:21:23;5.37;;;3.10;;
13793;SDS011;31160;49.500;7.772;2023-02-28T10:23:52;5.97;;;3.17;;
13793;SDS011;31160;49.500;7.772;2023-02-28T10:26:27;4.87;;;3.30;;
13793;SDS011;31160;49.500;7.772;2023-02-28T10:28:57;5.80;;;3.40;;
13793;SDS011;31160;49.500;7.772;2023-02-28T10:31:24;5.47;;;3.57;;
13793;SDS011;31160;49.500;7.772;2023-02-28T10:33:51;4.33;;;2.90;;
13793;SDS011;31160;49.500;7.772;2023-02-28T10:36:19;4.53;;;3.50;;
13793;SDS011;31160;49.500;7.772;2023-02-28T10:38:47;5.30;;;3.33;;
13793;SDS011;31160;49.500;7.772;2023-02-28T10:41:16;3.67;;;2.90;;
13793;SDS011;31160;49.500;7.772;2023-02-28T10:44:12;4.60;;;3.37;;
13793;SDS011;31160;49.500;7.772;2023-02-28T10:46:46;8.47;;;4.03;;
13793;SDS011;31160;49.500;7.772;2023-02-28T10:49:20;4.67;;;2.73;;
13793;SDS011;31160;49.500;7.772;2023-02-28T10:51:49;5.93;;;3.30;;
13793;SDS011;31160;49.500;7.772;2023-02-28T10:54:22;7.07;;;4.30;;
13793;SDS011;31160;49.500;7.772;2023-02-28T10:59:41;6.30;;;4.80;;
13793;SDS011;31160;49.500;7.772;2023-02-28T11:05:02;6.37;;;4.23;;
13793;SDS011;31160;49.500;7.772;2023-02-28T11:07:29;7.67;;;5.57;;
13793;SDS011;31160;49.500;7.772;2023-02-28T11:10:18;7.10;;;4.50;;
13793;SDS011;31160;49.500;7.772;2023-02-28T11:12:47;7.27;;;3.80;;
13793;SDS011;31160;49.500;7.772;2023-02-28T11:15:23;6.70;;;4.37;;
13793;SDS011;31160;49.500;7.772;2023-02-28T11:17:57;6.60;;;3.67;;
13793;SDS011;31160;49.500;7.772;2023-02-28T11:20:49;5.60;;;3.80;;
13793;SDS011;31160;49.500;7.772;2023-02-28T11:23:18;6.47;;;3.90;;
13793;SDS011;31160;49.500;7.772;2023-02-28T11:25:47;5.60;;;4.17;;
13793;SDS011;31160;49.500;7.772;2023-02-28T11:28:28;7.03;;;3.77;;
13793;SDS011;31160;49.500;7.772;2023-02-28T11:36:18;5.13;;;3.83;;
13793;SDS011;31160;49.500;7.772;2023-02-28T11:38:53;5.23;;;3.83;;
13793;SDS011;31160;49.500;7.772;2023-02-28T11:41:28;7.27;;;3.63;;
13793;SDS011;31160;49.500;7.772;2023-02-28T11:44:21;6.07;;;3.60;;
13793;SDS011;31160;49.500;7.772;2023-02-28T11:47:05;6.20;;;4.20;;
13793;SDS011;31160;49.500;7.772;2023-02-28T11:52:48;8.47;;;5.10;;
13793;SDS011;31160;49.500;7.772;2023-02-28T11:55:32;6.23;;;4.63;;
13793;SDS011;31160;49.500;7.772;2023-02-28T11:58:24;7.63;;;4.00;;
13793;SDS011;31160;49.500;7.772;2023-02-28T12:01:25;9.60;;;5.67;;
13793;SDS011;31160;49.500;7.772;2023-02-28T12:04:03;6.43;;;3.93;;
13793;SDS011;31160;49.500;7.772;2023-02-28T12:06:56;7.53;;;4.50;;
13793;SDS011;31160;49.500;7.772;2023-02-28T12:15:17;5.90;;;3.17;;
13793;SDS011;31160;49.500;7.772;2023-02-28T12:20:34;6.60;;;3.83;;
13793;SDS011;31160;49.500;7.772;2023-02-28T12:25:59;5.80;;;3.73;;
13793;SDS011;31160;49.500;7.772;2023-02-28T12:28:35;5.37;;;3.80;;
13793;SDS011;31160;49.500;7.772;2023-02-28T12:31:18;7.63;;;3.80;;
13793;SDS011;31160;49.500;7.772;2023-02-28T12:33:56;6.73;;;4.47;;
13793;SDS011;31160;49.500;7.772;2023-02-28T12:36:28;6.63;;;4.50;;
13793;SDS011;31160;49.500;7.772;2023-02-28T12:39:00;14.13;;;7.50;;
13793;SDS011;31160;49.500;7.772;2023-02-28T12:44:18;7.47;;;4.70;;
13793;SDS011;31160;49.500;7.772;2023-02-28T12:46:52;5.93;;;3.73;;
13793;SDS011;31160;49.500;7.772;2023-02-28T12:49:30;7.20;;;3.50;;
13793;SDS011;31160;49.500;7.772;2023-02-28T12:52:17;5.83;;;3.97;;
13793;SDS011;31160;49.500;7.772;2023-02-28T12:54:56;8.23;;;4.93;;
13793;SDS011;31160;49.500;7.772;2023-02-28T12:57:43;10.07;;;6.30;;
13793;SDS011;31160;49.500;7.772;2023-02-28T13:00:19;5.40;;;3.87;;
13793;SDS011;31160;49.500;7.772;2023-02-28T13:02:59;5.63;;;3.80;;
13793;SDS011;31160;49.500;7.772;2023-02-28T13:08:44;6.40;;;3.90;;
13793;SDS011;31160;49.500;7.772;2023-02-28T13:11:29;5.47;;;3.90;;
13793;SDS011;31160;49.500;7.772;2023-02-28T13:14:00;5.70;;;4.13;;
13793;SDS011;31160;49.500;7.772;2023-02-28T13:16:47;4.67;;;4.13;;
13793;SDS011;31160;49.500;7.772;2023-02-28T13:19:23;6.53;;;4.30;;
13793;SDS011;31160;49.500;7.772;2023-02-28T13:21:53;5.03;;;3.60;;
13793;SDS011;31160;49.500;7.772;2023-02-28T13:24:36;5.13;;;4.00;;
13793;SDS011;31160;49.500;7.772;2023-02-28T13:29:31;6.60;;;3.70;;
13793;SDS011;31160;49.500;7.772;2023-02-28T13:34:37;4.70;;;3.77;;
13793;SDS011;31160;49.500;7.772;2023-02-28T13:39:54;6.30;;;3.80;;
13793;SDS011;31160;49.500;7.772;2023-02-28T13:45:26;6.27;;;3.93;;
13793;SDS011;31160;49.500;7.772;2023-02-28T13:48:05;5.70;;;4.13;;
13793;SDS011;31160;49.500;7.772;2023-02-28T13:50:44;5.53;;;4.00;;
13793;SDS011;31160;49.500;7.772;2023-02-28T13:58:51;5.37;;;3.97;;
13793;SDS011;31160;49.500;7.772;2023-02-28T14:07:02;6.87;;;4.20;;
13793;SDS011;31160;49.500;7.772;2023-02-28T14:10:16;6.70;;;3.90;;
13793;SDS011;31160;49.500;7.772;2023-02-28T14:18:03;6.90;;;4.57;;
13793;SDS011;31160;49.500;7.772;2023-02-28T14:20:42;4.97;;;3.83;;
13793;SDS011;31160;49.500;7.772;2023-02-28T14:26:10;7.00;;;4.70;;
13793;SDS011;31160;49.500;7.772;2023-02-28T14:29:08;6.20;;;4.47;;
13793;SDS011;31160;49.500;7.772;2023-02-28T14:32:10;5.57;;;3.97;;
13793;SDS011;31160;49.500;7.772;2023-02-28T14:37:44;9.20;;;6.63;;
13793;SDS011;31160;49.500;7.772;2023-02-28T14:40:15;10.50;;;5.83;;
13793;SDS011;31160;49.500;7.772;2023-02-28T14:42:54;6.77;;;4.30;;
13793;SDS011;31160;49.500;7.772;2023-02-28T14:45:23;6.90;;;5.23;;
13793;SDS011;31160;49.500;7.772;2023-02-28T14:47:51;11.33;;;5.67;;
13793;SDS011;31160;49.500;7.772;2023-02-28T14:50:19;6.10;;;5.03;;
13793;SDS011;31160;49.500;7.772;2023-02-28T14:52:50;7.20;;;5.53;;
13793;SDS011;31160;49.500;7.772;2023-02-28T14:55:19;6.60;;;4.63;;
13793;SDS011;31160;49.500;7.772;2023-02-28T14:57:53;9.20;;;5.03;;
13793;SDS011;31160;49.500;7.772;2023-02-28T15:00:24;5.83;;;4.43;;
13793;SDS011;31160;49.500;7.772;2023-02-28T15:02:55;6.30;;;4.60;;
13793;SDS011;31160;49.500;7.772;2023-02-28T15:05:28;7.93;;;5.23;;
13793;SDS011;31160;49.500;7.772;2023-02-28T15:08:04;6.23;;;4.47;;
13793;SDS011;31160;49.500;7.772;2023-02-28T15:10:36;5.80;;;4.37;;
13793;SDS011;31160;49.500;7.772;2023-02-28T15:13:07;7.43;;;4.87;;
13793;SDS011;31160;49.500;7.772;2023-02-28T15:18:31;6.77;;;4.63;;
13793;SDS011;31160;49.500;7.772;2023-02-28T15:21:18;6.50;;;4.73;;
13793;SDS011;31160;49.500;7.772;2023-02-28T15:23:51;4.97;;;4.20;;
13793;SDS011;31160;49.500;7.772;2023-02-28T15:26:33;6.27;;;4.47;;
13793;SDS011;31160;49.500;7.772;2023-02-28T15:29:08;5.97;;;4.17;;
13793;SDS011;31160;49.500;7.772;2023-02-28T15:31:43;6.37;;;4.70;;
13793;SDS011;31160;49.500;7.772;2023-02-28T15:34:26;8.47;;;5.17;;
13793;SDS011;31160;49.500;7.772;2023-02-28T15:42:40;12.97;;;7.57;;
13793;SDS011;31160;49.500;7.772;2023-02-28T15:45:28;8.63;;;5.60;;
13793;SDS011;31160;49.500;7.772;2023-02-28T15:48:20;7.70;;;5.43;;
13793;SDS011;31160;49.500;7.772;2023-02-28T15:50:57;12.70;;;7.67;;
13793;SDS011;31160;49.500;7.772;2023-02-28T15:53:30;11.77;;;6.73;;
13793;SDS011;31160;49.500;7.772;2023-02-28T15:56:03;10.00;;;4.33;;
13793;SDS011;31160;49.500;7.772;2023-02-28T15:58:32;12.13;;;6.37;;
13793;SDS011;31160;49.500;7.772;2023-02-28T16:01:06;8.43;;;5.47;;
13793;SDS011;31160;49.500;7.772;2023-02-28T16:03:46;11.67;;;5.40;;
13793;SDS011;31160;49.500;7.772;2023-02-28T16:08:43;6.43;;;4.40;;
13793;SDS011;31160;49.500;7.772;2023-02-28T16:11:10;8.43;;;4.87;;
13793;SDS011;31160;49.500;7.772;2023-02-28T16:13:37;7.83;;;5.30;;
13793;SDS011;31160;49.500;7.772;2023-02-28T16:16:04;7.97;;;4.93;;
13793;SDS011;31160;49.500;7.772;2023-02-28T16:18:31;5.37;;;4.10;;
13793;SDS011;31160;49.500;7.772;2023-02-28T16:20:58;6.47;;;4.80;;
13793;SDS011;31160;49.500;7.772;2023-02-28T16:23:25;8.60;;;5.17;;
13793;SDS011;31160;49.500;7.772;2023-02-28T16:25:51;9.53;;;4.40;;
13793;SDS011;31160;49.500;7.772;2023-02-28T16:28:25;7.57;;;5.07;;
13793;SDS011;31160;49.500;7.772;2023-02-28T16:31:00;7.20;;;5.00;;
13793;SDS011;31160;49.500;7.772;2023-02-28T16:33:31;9.17;;;4.87;;
13793;SDS011;31160;49.500;7.772;2023-02-28T16:35:59;7.00;;;4.67;;
13793;SDS011;31160;49.500;7.772;2023-02-28T16:38:26;7.47;;;4.73;;
13793;SDS011;31160;49.500;7.772;2023-02-28T16:40:53;6.70;;;4.37;;
13793;SDS011;31160;49.500;7.772;2023-02-28T16:43:24;6.40;;;4.60;;
13793;SDS011;31160;49.500;7.772;2023-02-28T16:45:55;7.60;;;4.27;;
13793;SDS011;31160;49.500;7.772;2023-02-28T16:48:26;6.10;;;4.30;;
13793;SDS011;31160;49.500;7.772;2023-02-28T16:50:53;6.60;;;4.47;;
13793;SDS011;31160;49.500;7.772;2023-02-28T16:53:20;8.53;;;4.70;;
13793;SDS011;31160;49.500;7.772;2023-02-28T16:55:47;6.93;;;4.37;;
13793;SDS011;31160;49.500;7.772;2023-02-28T16:58:14;8.47;;;5.00;;
13793;SDS011;31160;49.500;7.772;2023-02-28T17:00:42;10.03;;;5.10;;
13793;SDS011;31160;49.500;7.772;2023-02-28T17:03:21;5.77;;;4.17;;